Time;durP1;ratioP1;P1;durP2;ratioP2;P2;SDS_P1;SDS_P2;PMS_P1;PMS_P2;Temp;Humidity;BMP_temperature;BMP_pressure;BME280_temperature;BME280_humidity;BME280_pressure;Samples;Min_cycle;Max_cycle;Signal;HPM_P1;HPM_P2
2022/05/25 00:00:57;;;;;;;14.13;8.40;;;9.70;87.00;;;;;;4815900;29;20337;-71
2022/05/25 00:03:22;;;;;;;16.63;9.57;;;9.70;87.20;;;;;;4820707;29;20043;-71
2022/05/25 00:05:48;;;;;;;15.87;8.53;;;9.80;87.70;;;;;;4816058;29;20362;-71
2022/05/25 00:08:14;;;;;;;10.25;8.85;;;9.80;87.60;;;;;;4839823;29;20145;-71
2022/05/25 00:10:40;;;;;;;12.60;8.25;;;9.80;87.30;;;;;;4812382;29;20054;-71
2022/05/25 00:13:07;;;;;;;13.45;9.05;;;9.80;87.60;;;;;;4847931;29;20513;-71
2022/05/25 00:15:33;;;;;;;13.07;8.15;;;9.80;87.10;;;;;;4825426;29;20097;-71
2022/05/25 00:17:58;;;;;;;13.23;8.90;;;9.80;87.30;;;;;;4802330;29;20395;-71
2022/05/25 00:20:24;;;;;;;12.63;9.40;;;9.80;87.10;;;;;;4803552;29;20525;-71
2022/05/25 00:22:53;;;;;;;14.13;9.07;;;9.80;87.10;;;;;;4832775;29;20046;-71
2022/05/25 00:25:22;;;;;;;13.38;9.63;;;9.80;87.10;;;;;;4819740;29;20099;-71
2022/05/25 00:27:48;;;;;;;11.60;9.18;;;9.80;87.00;;;;;;4819879;29;20129;-71
2022/05/25 00:30:15;;;;;;;17.67;10.67;;;9.80;87.30;;;;;;4833031;29;20532;-71
2022/05/25 00:32:41;;;;;;;14.73;10.07;;;9.80;87.20;;;;;;4838746;29;20249;-71
2022/05/25 00:35:13;;;;;;;15.48;10.80;;;9.80;87.40;;;;;;4819292;29;20050;-71
2022/05/25 00:37:39;;;;;;;14.73;10.40;;;9.80;87.50;;;;;;4824334;29;20093;-71
2022/05/25 00:40:08;;;;;;;14.85;10.55;;;9.70;87.50;;;;;;4848909;29;20117;-71
2022/05/25 00:42:37;;;;;;;15.98;11.00;;;9.70;87.40;;;;;;4823209;29;20106;-71
2022/05/25 00:45:05;;;;;;;19.50;11.63;;;9.70;87.40;;;;;;4831110;29;20114;-71
2022/05/25 00:47:32;;;;;;;20.05;11.23;;;9.70;87.40;;;;;;4818438;29;20110;-71
2022/05/25 00:49:58;;;;;;;15.88;11.45;;;9.70;87.50;;;;;;4803272;29;20058;-71
2022/05/25 00:52:26;;;;;;;13.60;10.13;;;9.70;87.70;;;;;;4824918;29;20052;-71
2022/05/25 00:55:04;;;;;;;15.20;11.00;;;9.70;88.10;;;;;;4816104;29;20038;-71
2022/05/25 00:57:34;;;;;;;20.20;10.95;;;9.70;87.90;;;;;;4835422;29;20235;-71
2022/05/25 01:00:19;;;;;;;17.80;11.68;;;9.70;87.80;;;;;;4841251;29;20851;-71
2022/05/25 01:02:48;;;;;;;16.02;10.45;;;9.70;87.90;;;;;;4831518;29;20416;-71
2022/05/25 01:05:18;;;;;;;13.95;9.43;;;9.60;87.80;;;;;;4806893;29;20080;-71
2022/05/25 01:07:48;;;;;;;14.35;8.95;;;9.60;87.80;;;;;;4818439;29;20136;-71
2022/05/25 01:10:49;;;;;;;13.90;9.70;;;9.60;88.00;;;;;;4861801;29;20149;-71
2022/05/25 01:13:40;;;;;;;11.20;8.50;;;9.60;88.10;;;;;;4820003;29;20057;-71
2022/05/25 01:16:21;;;;;;;9.85;8.77;;;9.60;88.20;;;;;;4818594;29;20170;-71
2022/05/25 01:19:04;;;;;;;12.43;8.45;;;9.60;88.00;;;;;;4826991;29;20046;-71
2022/05/25 01:21:48;;;;;;;18.50;8.95;;;9.60;88.10;;;;;;4841083;29;20050;-71
2022/05/25 01:25:11;;;;;;;10.65;7.72;;;9.50;88.00;;;;;;4800758;29;20129;-71
2022/05/25 01:27:45;;;;;;;15.57;8.68;;;9.50;88.00;;;;;;4848321;29;20053;-71
2022/05/25 01:30:38;;;;;;;12.48;7.32;;;9.50;88.20;;;;;;4831209;29;20198;-71
2022/05/25 01:33:21;;;;;;;12.57;7.55;;;9.50;88.30;;;;;;4824861;29;20070;-71
2022/05/25 01:36:12;;;;;;;13.30;8.13;;;9.50;88.30;;;;;;4839965;29;20054;-71
2022/05/25 01:38:59;;;;;;;13.80;7.50;;;9.50;88.40;;;;;;4834934;29;20404;-71
2022/05/25 01:41:45;;;;;;;12.75;7.90;;;9.50;88.30;;;;;;4821926;29;20102;-71
2022/05/25 01:44:23;;;;;;;14.23;7.77;;;9.50;88.30;;;;;;4823252;29;20407;-71
2022/05/25 01:46:57;;;;;;;12.77;7.55;;;9.50;88.30;;;;;;4852831;29;20057;-71
2022/05/25 01:49:28;;;;;;;15.30;7.55;;;9.50;88.20;;;;;;4819919;29;20053;-71
2022/05/25 01:52:00;;;;;;;17.15;8.18;;;9.50;88.30;;;;;;4820933;29;20042;-71
2022/05/25 01:54:31;;;;;;;14.98;7.40;;;9.50;88.40;;;;;;4824462;29;20042;-71
2022/05/25 01:57:00;;;;;;;13.70;7.50;;;9.50;88.50;;;;;;4806914;29;20053;-71
2022/05/25 01:59:26;;;;;;;10.80;7.55;;;9.50;88.60;;;;;;4797196;29;20047;-71
2022/05/25 02:04:42;;;;;;;11.65;7.80;;;9.50;88.80;;;;;;4844127;29;20050;-71
2022/05/25 02:07:36;;;;;;;13.95;7.47;;;9.50;88.90;;;;;;4850468;29;20049;-73
2022/05/25 02:10:08;;;;;;;16.65;7.78;;;9.50;89.00;;;;;;4827577;29;20510;-73
2022/05/25 02:13:05;;;;;;;15.95;7.40;;;9.50;88.80;;;;;;4865410;29;20078;-73
2022/05/25 02:15:39;;;;;;;15.90;7.50;;;9.60;88.90;;;;;;4820930;29;20097;-73
2022/05/25 02:18:15;;;;;;;14.23;7.50;;;9.60;88.90;;;;;;4840108;29;20050;-73
2022/05/25 02:21:01;;;;;;;12.93;7.43;;;9.60;88.90;;;;;;4805937;29;20543;-73
2022/05/25 02:23:41;;;;;;;12.60;7.43;;;9.60;88.90;;;;;;4819018;29;20050;-73
2022/05/25 02:26:12;;;;;;;11.82;6.80;;;9.60;89.00;;;;;;4830210;29;20110;-73
2022/05/25 02:28:43;;;;;;;11.90;6.22;;;9.60;89.00;;;;;;4816760;29;20083;-73
2022/05/25 02:31:14;;;;;;;14.30;7.05;;;9.50;89.00;;;;;;4834852;29;20473;-73
2022/05/25 02:33:45;;;;;;;14.63;6.30;;;9.50;89.00;;;;;;4803254;29;20456;-73
2022/05/25 02:36:11;;;;;;;13.38;6.38;;;9.50;89.00;;;;;;4804101;29;20046;-73
2022/05/25 02:38:42;;;;;;;11.00;5.88;;;9.40;89.10;;;;;;4814408;29;20042;-73
2022/05/25 02:41:12;;;;;;;11.38;6.38;;;9.40;89.50;;;;;;4853681;29;20050;-73
2022/05/25 02:43:39;;;;;;;11.27;6.28;;;9.40;89.40;;;;;;4821448;29;20046;-73
2022/05/25 02:46:06;;;;;;;13.35;6.20;;;9.30;89.40;;;;;;4816548;29;20517;-73
2022/05/25 02:48:34;;;;;;;8.55;5.60;;;9.30;89.20;;;;;;4821614;29;20854;-73
2022/05/25 02:50:59;;;;;;;14.27;5.78;;;9.30;89.20;;;;;;4798895;29;20043;-73
2022/05/25 02:53:25;;;;;;;14.10;5.77;;;9.30;89.30;;;;;;4827995;29;20054;-73
2022/05/25 02:55:51;;;;;;;11.97;5.90;;;9.30;89.30;;;;;;4851403;29;20049;-73
2022/05/25 02:58:17;;;;;;;14.17;6.00;;;9.30;89.40;;;;;;4855420;29;20496;-73
2022/05/25 03:00:43;;;;;;;11.30;6.65;;;9.30;89.50;;;;;;4808917;29;20038;-73
2022/05/25 03:03:12;;;;;;;12.65;6.63;;;9.40;89.80;;;;;;4836942;29;20106;-73
2022/05/25 03:05:39;;;;;;;10.32;6.65;;;9.40;89.90;;;;;;4802704;29;20369;-73
2022/05/25 03:08:05;;;;;;;12.38;6.82;;;9.40;89.70;;;;;;4810479;29;20544;-73
2022/05/25 03:10:31;;;;;;;12.40;7.05;;;9.40;89.70;;;;;;4804434;29;20050;-73
2022/05/25 03:12:57;;;;;;;11.77;7.05;;;9.40;89.80;;;;;;4846697;29;20065;-73
2022/05/25 03:15:23;;;;;;;10.80;6.73;;;9.50;90.10;;;;;;4836017;29;20420;-73
2022/05/25 03:17:49;;;;;;;10.70;7.13;;;9.50;90.00;;;;;;4817658;29;20239;-73
2022/05/25 03:20:15;;;;;;;12.07;6.70;;;9.50;90.20;;;;;;4806944;29;20053;-73
2022/05/25 03:22:44;;;;;;;14.55;6.82;;;9.50;90.10;;;;;;4802395;29;20438;-73
2022/05/25 03:25:13;;;;;;;15.10;7.15;;;9.60;89.90;;;;;;4817907;29;20094;-73
2022/05/25 03:27:39;;;;;;;12.48;6.80;;;9.60;90.00;;;;;;4818734;29;20257;-73
2022/05/25 03:30:08;;;;;;;13.25;7.10;;;9.60;89.90;;;;;;4798765;29;20047;-73
2022/05/25 03:32:35;;;;;;;13.43;7.05;;;9.60;89.90;;;;;;4819304;29;20114;-73
2022/05/25 03:35:02;;;;;;;14.07;6.55;;;9.60;90.20;;;;;;4816085;29;20077;-73
2022/05/25 03:37:28;;;;;;;10.02;5.53;;;9.70;90.10;;;;;;4804300;29;20042;-73
2022/05/25 03:39:54;;;;;;;14.20;6.07;;;9.70;90.20;;;;;;4831769;29;20043;-73
2022/05/25 03:42:20;;;;;;;10.17;5.47;;;9.70;90.20;;;;;;4836257;29;20487;-73
2022/05/25 03:44:46;;;;;;;15.63;5.78;;;9.70;90.10;;;;;;4824885;29;20038;-73
2022/05/25 03:47:12;;;;;;;10.68;5.97;;;9.70;90.20;;;;;;4816454;29;20049;-73
2022/05/25 03:49:37;;;;;;;8.77;5.27;;;9.70;90.10;;;;;;4799121;29;20046;-73
2022/05/25 03:52:05;;;;;;;11.60;5.27;;;9.70;90.00;;;;;;4829121;29;20061;-73
2022/05/25 03:54:31;;;;;;;9.98;5.80;;;9.70;90.20;;;;;;4819863;29;20634;-73
2022/05/25 03:56:58;;;;;;;11.52;5.30;;;9.70;90.00;;;;;;4825997;29;20050;-73
2022/05/25 03:59:24;;;;;;;13.88;5.50;;;9.60;90.00;;;;;;4823913;29;20043;-73
2022/05/25 04:01:50;;;;;;;9.77;5.05;;;9.60;90.00;;;;;;4823113;29;20057;-73
2022/05/25 04:04:16;;;;;;;9.27;4.75;;;9.60;90.00;;;;;;4816271;29;20049;-73
2022/05/25 04:06:42;;;;;;;10.13;4.77;;;9.60;90.10;;;;;;4829396;29;20073;-73
2022/05/25 04:09:10;;;;;;;11.15;4.93;;;9.60;90.10;;;;;;4822433;29;20046;-73
2022/05/25 04:11:37;;;;;;;9.07;4.25;;;9.60;90.10;;;;;;4842971;29;20109;-73
2022/05/25 04:14:04;;;;;;;10.85;5.00;;;9.60;90.00;;;;;;4819800;29;20050;-74
2022/05/25 04:16:30;;;;;;;8.75;4.47;;;9.60;90.10;;;;;;4809191;29;20050;-73
2022/05/25 04:18:55;;;;;;;8.27;4.57;;;9.70;90.10;;;;;;4819351;29;20053;-73
2022/05/25 04:21:21;;;;;;;12.03;5.23;;;9.70;90.00;;;;;;4808850;29;20045;-73
2022/05/25 04:23:47;;;;;;;15.53;5.07;;;9.70;90.10;;;;;;4806782;29;20407;-73
2022/05/25 04:26:13;;;;;;;11.63;4.70;;;9.70;90.10;;;;;;4809052;29;20307;-73
2022/05/25 04:28:38;;;;;;;9.87;4.50;;;9.80;90.10;;;;;;4807725;29;20061;-73
2022/05/25 04:31:04;;;;;;;10.13;4.13;;;9.80;90.20;;;;;;4819617;29;20066;-73
2022/05/25 04:33:30;;;;;;;6.63;3.77;;;9.80;90.10;;;;;;4805024;29;20326;-73
2022/05/25 04:35:57;;;;;;;6.85;4.07;;;9.90;90.10;;;;;;4818090;29;20045;-73
2022/05/25 04:38:24;;;;;;;8.02;3.65;;;10.00;90.00;;;;;;4855194;29;20450;-73
2022/05/25 04:40:49;;;;;;;7.03;3.67;;;10.10;90.10;;;;;;4843682;29;20565;-73
2022/05/25 04:43:18;;;;;;;6.93;3.30;;;10.10;90.10;;;;;;4811250;29;20129;-73
2022/05/25 04:45:46;;;;;;;8.65;3.20;;;10.20;90.20;;;;;;4843829;29;20058;-73
2022/05/25 04:48:13;;;;;;;9.80;3.70;;;10.30;90.40;;;;;;4823281;29;20058;-73
2022/05/25 04:50:41;;;;;;;7.07;3.33;;;10.50;90.40;;;;;;4824438;29;20054;-73
2022/05/25 04:53:12;;;;;;;6.28;2.97;;;10.70;90.40;;;;;;4804935;29;20106;-71
2022/05/25 04:58:27;;;;;;;5.50;2.83;;;11.10;90.10;;;;;;4852732;29;20050;-71
2022/05/25 05:00:53;;;;;;;5.60;2.92;;;11.40;89.90;;;;;;4836690;29;20166;-71
2022/05/25 05:03:21;;;;;;;8.43;2.93;;;11.70;89.50;;;;;;4841024;29;20042;-71
2022/05/25 05:05:48;;;;;;;7.40;2.67;;;12.10;89.60;;;;;;4832768;29;20050;-71
2022/05/25 05:08:14;;;;;;;8.13;2.50;;;13.00;89.10;;;;;;4816952;29;20050;-71
2022/05/25 05:10:40;;;;;;;9.93;2.30;;;14.10;87.10;;;;;;4831136;29;20299;-71
2022/05/25 05:13:07;;;;;;;6.00;2.20;;;15.00;82.20;;;;;;4845677;29;20046;-72
2022/05/25 05:15:39;;;;;;;7.03;2.10;;;15.80;79.80;;;;;;4855926;29;20323;-72
2022/05/25 05:18:06;;;;;;;9.30;3.10;;;16.50;76.50;;;;;;4846626;29;20295;-72
2022/05/25 05:20:32;;;;;;;6.80;1.67;;;17.00;74.50;;;;;;4820046;29;20712;-72
2022/05/25 05:22:57;;;;;;;7.53;1.73;;;17.40;72.20;;;;;;4844330;29;20363;-72
2022/05/25 05:25:23;;;;;;;8.20;1.57;;;17.70;70.40;;;;;;4817002;29;20066;-72
2022/05/25 05:27:49;;;;;;;6.00;1.43;;;18.10;69.60;;;;;;4818187;29;20488;-72
2022/05/25 05:30:19;;;;;;;6.67;2.00;;;18.50;69.10;;;;;;4817139;29;20415;-72
2022/05/25 05:32:45;;;;;;;6.63;1.70;;;18.80;67.50;;;;;;4837630;29;20056;-72
2022/05/25 05:35:11;;;;;;;7.67;2.20;;;19.00;66.80;;;;;;4831715;29;20307;-72
2022/05/25 05:37:57;;;;;;;4.00;1.50;;;19.20;65.40;;;;;;4848534;29;20073;-72
2022/05/25 05:40:24;;;;;;;7.43;2.03;;;19.30;64.50;;;;;;4862263;29;20061;-72
2022/05/25 05:42:52;;;;;;;6.53;1.70;;;19.40;63.70;;;;;;4834649;29;20295;-72
2022/05/25 05:45:22;;;;;;;6.33;1.50;;;19.50;63.00;;;;;;4818574;29;20295;-72
2022/05/25 05:47:53;;;;;;;4.17;1.20;;;19.50;61.90;;;;;;4867706;29;20291;-72
2022/05/25 05:50:21;;;;;;;5.43;1.67;;;19.30;61.90;;;;;;4817190;29;20299;-72
2022/05/25 05:52:49;;;;;;;5.30;1.23;;;19.40;61.80;;;;;;4811836;29;20293;-72
2022/05/25 05:55:15;;;;;;;4.07;1.00;;;19.30;61.30;;;;;;4816884;29;20316;-72
2022/05/25 05:57:41;;;;;;;5.37;0.97;;;19.30;61.60;;;;;;4812156;29;20290;-72
2022/05/25 06:00:08;;;;;;;5.77;1.30;;;19.50;60.90;;;;;;4864859;29;20298;-72
2022/05/25 06:02:34;;;;;;;5.77;1.20;;;19.50;60.50;;;;;;4840611;29;20042;-71
2022/05/25 06:04:59;;;;;;;5.93;1.00;;;19.60;60.90;;;;;;4833561;29;20666;-72
2022/05/25 06:07:25;;;;;;;6.63;1.07;;;19.70;60.90;;;;;;4820347;29;20078;-72
2022/05/25 06:09:51;;;;;;;3.50;0.90;;;19.80;60.70;;;;;;4848621;29;20088;-72
2022/05/25 06:12:16;;;;;;;5.23;0.90;;;19.90;59.90;;;;;;4819939;29;20049;-72
2022/05/25 06:14:43;;;;;;;5.50;0.90;;;19.70;59.10;;;;;;4807653;29;20046;-72
2022/05/25 06:19:53;;;;;;;4.20;0.90;;;19.70;59.80;;;;;;4853966;29;20295;-72
2022/05/25 06:22:19;;;;;;;4.00;0.77;;;19.70;59.80;;;;;;4824549;29;20303;-72
2022/05/25 06:24:48;;;;;;;4.83;1.00;;;19.90;59.40;;;;;;4809757;29;20295;-72
2022/05/25 06:27:14;;;;;;;5.20;1.10;;;19.90;59.00;;;;;;4818555;29;20500;-72
2022/05/25 06:29:48;;;;;;;2.27;0.87;;;19.90;59.00;;;;;;4822713;29;20296;-72
2022/05/25 06:32:19;;;;;;;3.53;0.53;;;19.80;58.60;;;;;;4845526;29;20395;-72
2022/05/25 06:34:48;;;;;;;3.00;0.90;;;19.60;58.10;;;;;;4802762;29;20299;-72
2022/05/25 06:37:19;;;;;;;4.30;0.57;;;19.50;58.60;;;;;;4818545;29;20307;-73
2022/05/25 06:39:46;;;;;;;3.90;0.87;;;19.40;58.40;;;;;;4836845;29;20397;-73
2022/05/25 06:42:12;;;;;;;4.20;0.77;;;19.30;58.70;;;;;;4823837;29;20288;-72
2022/05/25 06:44:38;;;;;;;5.73;1.07;;;19.00;57.70;;;;;;4820773;29;20324;-72
2022/05/25 06:47:05;;;;;;;8.00;2.60;;;18.70;59.10;;;;;;4828442;29;20284;-72
2022/05/25 06:49:31;;;;;;;6.67;1.10;;;18.00;60.90;;;;;;4820637;29;20082;-72
2022/05/25 06:51:57;;;;;;;5.17;1.40;;;17.50;62.80;;;;;;4836409;29;20296;-72
2022/05/25 06:54:23;;;;;;;4.00;1.00;;;17.20;64.10;;;;;;4830199;29;20664;-72
2022/05/25 06:56:49;;;;;;;4.70;1.10;;;17.00;65.20;;;;;;4818936;29;20130;-72
2022/05/25 06:59:15;;;;;;;4.07;1.40;;;17.20;66.00;;;;;;4835702;29;20055;-73
2022/05/25 07:01:42;;;;;;;4.27;1.40;;;17.40;65.70;;;;;;4830786;29;20678;-73
2022/05/25 07:04:09;;;;;;;4.53;1.47;;;17.50;65.60;;;;;;4819334;29;20050;-73
2022/05/25 07:06:36;;;;;;;4.30;1.30;;;17.50;65.10;;;;;;4820460;29;20299;-72
2022/05/25 07:09:04;;;;;;;4.53;1.47;;;17.30;64.90;;;;;;4804157;29;20295;-73
2022/05/25 07:11:29;;;;;;;6.33;1.80;;;17.20;66.50;;;;;;4822474;29;20793;-72
2022/05/25 07:13:55;;;;;;;4.37;1.50;;;17.20;67.30;;;;;;4819680;29;20303;-72
2022/05/25 07:16:22;;;;;;;5.03;2.00;;;17.30;68.00;;;;;;4806573;29;20070;-72
2022/05/25 07:18:48;;;;;;;4.73;1.90;;;17.10;66.20;;;;;;4819733;29;20113;-72
2022/05/25 07:21:21;;;;;;;5.40;1.40;;;16.90;66.80;;;;;;4820803;29;20640;-72
2022/05/25 07:23:49;;;;;;;6.47;1.77;;;16.60;66.50;;;;;;4793782;29;20292;-72
2022/05/25 07:26:16;;;;;;;3.60;1.40;;;16.40;67.30;;;;;;4823741;29;20672;-72
2022/05/25 07:28:42;;;;;;;5.73;2.97;;;16.20;68.00;;;;;;4804322;29;20295;-72
2022/05/25 07:31:21;;;;;;;6.33;2.13;;;16.00;67.70;;;;;;4850947;29;20295;-72
2022/05/25 07:33:53;;;;;;;5.33;1.83;;;15.70;67.50;;;;;;4834211;29;20417;-72
2022/05/25 07:36:19;;;;;;;4.73;2.27;;;15.40;68.10;;;;;;4817416;29;20312;-72
2022/05/25 07:38:50;;;;;;;4.10;2.23;;;15.30;69.10;;;;;;4820050;29;20801;-72
2022/05/25 07:41:17;;;;;;;5.00;2.00;;;15.20;69.40;;;;;;4801516;29;20785;-72
2022/05/25 07:43:47;;;;;;;4.90;2.37;;;15.30;70.00;;;;;;4830178;29;20298;-72
2022/05/25 07:46:13;;;;;;;6.07;2.60;;;15.30;70.20;;;;;;4840712;29;20283;-72
2022/05/25 07:48:38;;;;;;;6.77;2.53;;;15.50;71.00;;;;;;4828601;29;20306;-72
2022/05/25 07:51:05;;;;;;;5.07;2.50;;;15.90;70.00;;;;;;4802934;29;20046;-72
2022/05/25 07:56:15;;;;;;;4.87;1.67;;;16.10;68.00;;;;;;4836662;29;20343;-72
2022/05/25 07:58:41;;;;;;;5.20;2.03;;;16.30;68.20;;;;;;4829787;29;20287;-72
2022/05/25 08:01:16;;;;;;;6.53;1.77;;;16.40;68.00;;;;;;4847613;29;20360;-72
2022/05/25 08:06:30;;;;;;;5.80;2.00;;;16.70;66.40;;;;;;4835662;29;20418;-72
2022/05/25 08:08:57;;;;;;;5.67;2.30;;;16.70;66.80;;;;;;4816302;29;20378;-72
2022/05/25 08:11:23;;;;;;;7.83;3.10;;;16.80;66.50;;;;;;4817470;29;20054;-72
2022/05/25 08:13:53;;;;;;;8.33;4.03;;;16.80;66.80;;;;;;4820671;29;20328;-72
2022/05/25 08:16:19;;;;;;;5.27;3.60;;;17.10;67.30;;;;;;4831006;29;20326;-72
2022/05/25 08:18:44;;;;;;;8.30;4.30;;;17.20;67.30;;;;;;4817883;29;21034;-72
2022/05/25 08:21:10;;;;;;;8.10;4.40;;;17.50;67.10;;;;;;4841277;29;20407;-72
2022/05/25 08:23:36;;;;;;;9.33;4.20;;;17.60;66.00;;;;;;4813338;29;20658;-72
2022/05/25 08:26:02;;;;;;;7.07;4.50;;;17.60;66.00;;;;;;4813636;29;20482;-73
2022/05/25 08:28:27;;;;;;;6.70;4.67;;;17.70;65.90;;;;;;4834778;29;20300;-73
2022/05/25 08:30:53;;;;;;;8.53;5.07;;;17.90;66.10;;;;;;4815772;29;20067;-73
2022/05/25 08:33:21;;;;;;;7.63;4.47;;;17.90;65.20;;;;;;4815384;29;20055;-73
2022/05/25 08:35:48;;;;;;;8.20;4.97;;;17.70;64.90;;;;;;4804159;29;20116;-73
2022/05/25 08:38:13;;;;;;;9.30;5.27;;;17.70;65.00;;;;;;4812627;29;20303;-73
2022/05/25 08:40:40;;;;;;;10.43;5.77;;;17.80;65.00;;;;;;4807213;29;20622;-72
2022/05/25 08:43:23;;;;;;;9.90;6.30;;;17.80;65.60;;;;;;4821645;29;20133;-72
2022/05/25 08:45:53;;;;;;;9.73;6.00;;;18.00;65.90;;;;;;4816889;29;20382;-72
2022/05/25 08:48:21;;;;;;;9.60;6.00;;;18.30;66.00;;;;;;4818343;29;20310;-72
2022/05/25 08:50:53;;;;;;;7.73;6.30;;;18.70;65.10;;;;;;4830830;29;20302;-73
2022/05/25 08:53:23;;;;;;;9.77;7.07;;;19.00;63.70;;;;;;4817487;29;20386;-73
2022/05/25 08:56:01;;;;;;;10.13;7.03;;;19.20;62.60;;;;;;4818100;29;20316;-73
2022/05/25 08:58:48;;;;;;;11.87;8.17;;;19.20;62.60;;;;;;4838770;29;20634;-72
2022/05/25 09:01:27;;;;;;;15.17;9.33;;;19.20;62.90;;;;;;4846218;29;20291;-73
2022/05/25 09:04:05;;;;;;;9.37;7.10;;;18.90;62.70;;;;;;4823311;29;20280;-73
2022/05/25 09:07:15;;;;;;;11.30;8.80;;;18.50;61.80;;;;;;4829248;29;20050;-73
2022/05/25 09:09:46;;;;;;;13.57;8.63;;;18.20;63.60;;;;;;4827366;29;20303;-73
2022/05/25 09:12:18;;;;;;;12.80;8.43;;;18.00;63.90;;;;;;4823951;29;20314;-72
2022/05/25 09:15:02;;;;;;;11.90;8.73;;;17.90;64.50;;;;;;4854804;29;20305;-72
2022/05/25 09:17:44;;;;;;;9.00;7.67;;;18.10;64.50;;;;;;4833226;29;20406;-73
2022/05/25 09:20:14;;;;;;;11.80;8.00;;;18.20;64.40;;;;;;4831432;29;20421;-73
2022/05/25 09:22:41;;;;;;;10.20;7.40;;;18.30;63.60;;;;;;4836660;29;20386;-73
2022/05/25 09:25:10;;;;;;;10.80;9.00;;;18.50;63.60;;;;;;4851319;29;20848;-73
2022/05/25 09:27:52;;;;;;;14.77;10.07;;;18.70;63.00;;;;;;4825350;29;20833;-73
2022/05/25 09:30:19;;;;;;;12.60;8.47;;;18.90;62.10;;;;;;4809572;29;20668;-72
2022/05/25 09:33:02;;;;;;;13.33;10.17;;;18.90;62.50;;;;;;4851727;29;20303;-72
2022/05/25 09:35:41;;;;;;;14.17;11.07;;;18.70;62.40;;;;;;4818738;29;20058;-72
2022/05/25 09:38:27;;;;;;;13.00;11.60;;;18.40;63.20;;;;;;4829531;29;20049;-72
2022/05/25 09:40:53;;;;;;;15.80;11.80;;;18.10;64.40;;;;;;4850006;29;20122;-72
2022/05/25 09:43:22;;;;;;;13.47;10.30;;;17.90;65.40;;;;;;4821186;29;20279;-73
2022/05/25 09:45:58;;;;;;;14.77;10.23;;;17.70;63.90;;;;;;4820347;29;20058;-73
2022/05/25 09:48:29;;;;;;;15.90;11.23;;;17.60;64.30;;;;;;4819881;29;20308;-72
2022/05/25 09:51:04;;;;;;;14.83;11.73;;;17.50;65.30;;;;;;4819773;29;20407;-72
2022/05/25 09:53:41;;;;;;;;;;;17.50;66.00;;;;;;4842765;29;20295;-72
2022/05/25 09:56:16;;;;;;;7.03;5.93;;;17.60;64.90;;;;;;4826588;29;19973;-72
2022/05/25 09:58:49;;;;;;;6.70;3.90;;;17.70;63.80;;;;;;4851830;29;20365;-72
2022/05/25 10:01:32;;;;;;;10.87;9.20;;;17.60;61.50;;;;;;4818344;29;20077;-72
2022/05/25 10:04:00;;;;;;;15.90;12.40;;;17.50;62.70;;;;;;4812601;29;20334;-73
2022/05/25 10:06:50;;;;;;;24.37;13.90;;;17.10;65.30;;;;;;4817540;29;20328;-72
2022/05/25 10:09:29;;;;;;;14.77;4.97;;;16.60;67.40;;;;;;4846516;29;20318;-74
2022/05/25 10:12:21;;;;;;;5.60;3.00;;;15.50;68.30;;;;;;4822637;29;20704;-74
2022/05/25 10:14:57;;;;;;;5.93;5.10;;;14.30;68.90;;;;;;4820045;29;20705;-74
2022/05/25 10:17:40;;;;;;;7.20;5.07;;;13.30;73.60;;;;;;4816456;29;20303;-73
2022/05/25 10:20:26;;;;;;;12.60;10.43;;;12.70;76.50;;;;;;4823438;29;20796;-74
2022/05/25 10:23:18;;;;;;;15.77;12.43;;;12.40;79.70;;;;;;4822661;29;20661;-74
2022/05/25 10:25:48;;;;;;;19.03;16.30;;;12.30;80.70;;;;;;4836666;29;20695;-74
2022/05/25 10:28:20;;;;;;;24.90;20.57;;;12.40;83.00;;;;;;4806457;29;20288;-74
2022/05/25 10:37:12;;;;;;;10.70;9.60;;;13.10;83.90;;;;;;4850447;29;20546;-74
2022/05/25 10:39:40;;;;;;;19.77;16.30;;;13.10;83.20;;;;;;4819733;29;20284;-74
2022/05/25 10:42:17;;;;;;;20.80;17.23;;;13.20;83.00;;;;;;4822059;29;20650;-75
2022/05/25 10:44:59;;;;;;;35.07;26.93;;;13.60;84.20;;;;;;4794430;29;20292;-75
2022/05/25 10:47:34;;;;;;;34.80;26.40;;;14.00;85.30;;;;;;4836278;29;20283;-74
2022/05/25 10:50:01;;;;;;;;;;;14.40;85.00;;;;;;4818492;29;20322;-74
2022/05/25 10:52:36;;;;;;;26.47;22.00;;;14.60;84.10;;;;;;4838399;29;20267;-74
2022/05/25 10:55:05;;;;;;;25.33;22.57;;;14.70;83.20;;;;;;4821586;29;20781;-74
2022/05/25 10:57:57;;;;;;;25.87;22.17;;;14.80;83.10;;;;;;4807346;29;20296;-74
2022/05/25 11:00:48;;;;;;;20.57;15.03;;;15.00;82.90;;;;;;4820710;29;20322;-74
2022/05/25 11:03:31;;;;;;;11.43;6.90;;;15.30;80.30;;;;;;4836602;29;20795;-74
2022/05/25 11:06:27;;;;;;;7.07;1.70;;;15.60;77.20;;;;;;4805160;29;20292;-74
2022/05/25 11:09:16;;;;;;;8.70;3.00;;;15.70;74.40;;;;;;4807481;29;20848;-74
2022/05/25 11:11:43;;;;;;;8.23;2.00;;;15.80;75.00;;;;;;4844097;29;20656;-74
2022/05/25 11:14:32;;;;;;;5.80;1.10;;;15.80;72.40;;;;;;4829254;29;20299;-74
2022/05/25 11:17:10;;;;;;;2.90;0.90;;;15.70;68.30;;;;;;4823565;29;20361;-74
2022/05/25 11:20:06;;;;;;;15.70;3.53;;;15.80;68.00;;;;;;4836575;29;20362;-74
2022/05/25 11:22:47;;;;;;;10.30;2.27;;;15.70;65.40;;;;;;4837989;29;20733;-74
2022/05/25 11:25:24;;;;;;;4.07;0.60;;;15.60;63.70;;;;;;4823531;29;20323;-74
2022/05/25 11:28:30;;;;;;;3.73;0.93;;;15.70;66.20;;;;;;4837474;29;20303;-74
2022/05/25 11:31:30;;;;;;;5.10;0.80;;;16.00;64.30;;;;;;4830157;29;20308;-73
2022/05/25 11:34:38;;;;;;;2.13;0.60;;;16.10;66.60;;;;;;4834923;29;20349;-74
2022/05/25 11:37:18;;;;;;;4.53;1.20;;;16.40;63.10;;;;;;4841799;29;20315;-74
2022/05/25 11:39:43;;;;;;;2.43;0.40;;;16.50;62.10;;;;;;4834084;29;20279;-74
2022/05/25 11:42:44;;;;;;;0.87;0.50;;;16.50;62.90;;;;;;4825569;29;20836;-74
2022/05/25 11:45:38;;;;;;;2.30;0.40;;;16.60;59.50;;;;;;4826345;29;20061;-74
2022/05/25 11:48:34;;;;;;;2.97;1.10;;;16.60;59.90;;;;;;4818845;29;20786;-74
2022/05/25 11:51:17;;;;;;;5.07;1.23;;;16.70;58.00;;;;;;4843790;29;20714;-74
2022/05/25 11:54:13;;;;;;;3.83;0.87;;;16.80;59.00;;;;;;4822272;29;20816;-73
2022/05/25 11:57:04;;;;;;;13.05;3.53;;;16.90;58.70;;;;;;4819515;29;20677;-73
2022/05/25 11:59:36;;;;;;;44.00;6.23;;;16.90;57.00;;;;;;4826451;29;20046;-74
2022/05/25 12:02:14;;;;;;;4.90;0.50;;;17.00;56.20;;;;;;4847775;29;20295;-73
2022/05/25 12:04:54;;;;;;;3.37;0.47;;;17.00;57.60;;;;;;4819613;29;20288;-74
2022/05/25 12:07:32;;;;;;;3.63;0.20;;;17.10;54.60;;;;;;4798700;29;20292;-73
2022/05/25 12:10:26;;;;;;;3.27;0.37;;;17.20;55.10;;;;;;4818081;29;20656;-73
2022/05/25 12:13:37;;;;;;;6.40;1.37;;;17.40;54.20;;;;;;4824672;29;20284;-73
2022/05/25 12:16:19;;;;;;;2.77;0.37;;;17.30;52.40;;;;;;4834218;29;20323;-73
2022/05/25 12:19:06;;;;;;;1.50;0.33;;;17.40;53.20;;;;;;4808161;29;20305;-73
2022/05/25 12:21:49;;;;;;;2.77;0.40;;;17.50;55.20;;;;;;4822713;29;20790;-73
2022/05/25 12:24:22;;;;;;;2.70;0.53;;;17.40;53.90;;;;;;4823441;29;20302;-73
2022/05/25 12:26:48;;;;;;;3.93;0.70;;;17.50;55.20;;;;;;4820579;29;20358;-73
2022/05/25 12:29:14;;;;;;;4.83;0.87;;;17.70;55.40;;;;;;4809047;29;20747;-73
2022/05/25 12:31:42;;;;;;;10.20;5.13;;;17.80;54.10;;;;;;4846946;29;20724;-73
2022/05/25 12:34:14;;;;;;;4.23;1.03;;;17.90;55.50;;;;;;4826226;29;20054;-73
2022/05/25 12:36:42;;;;;;;4.10;0.70;;;17.80;53.20;;;;;;4842287;29;20357;-74
2022/05/25 12:39:11;;;;;;;5.80;0.53;;;17.80;55.00;;;;;;4840944;29;20285;-73
2022/05/25 12:41:39;;;;;;;5.63;2.83;;;17.80;54.30;;;;;;4819853;29;20288;-73
2022/05/25 12:49:53;;;;;;;4.20;0.70;;;17.50;56.60;;;;;;4835714;29;19968;-73
2022/05/25 12:52:28;;;;;;;3.47;0.70;;;17.50;56.00;;;;;;4819696;29;20345;-74
2022/05/25 12:55:13;;;;;;;11.80;2.85;;;17.30;54.80;;;;;;4830945;29;20739;-73
2022/05/25 12:57:50;;;;;;;6.97;1.77;;;17.10;55.70;;;;;;4832713;29;20136;-73
2022/05/25 13:01:00;;;;;;;13.73;1.57;;;17.00;55.10;;;;;;4829954;29;20038;-73
2022/05/25 13:03:42;;;;;;;22.17;4.27;;;16.90;56.40;;;;;;4828085;29;20283;-73
2022/05/25 13:06:10;;;;;;;3.50;0.70;;;16.80;56.20;;;;;;4832692;29;20738;-73
2022/05/25 13:08:50;;;;;;;34.80;5.73;;;16.70;56.50;;;;;;4811957;29;20348;-73
2022/05/25 13:11:28;;;;;;;3.93;1.57;;;16.60;55.60;;;;;;4832659;29;20339;-73
2022/05/25 13:13:55;;;;;;;5.40;1.23;;;16.60;55.70;;;;;;4852781;29;20649;-73
2022/05/25 13:16:40;;;;;;;3.13;0.50;;;16.60;56.10;;;;;;4825897;29;20331;-73
2022/05/25 13:19:37;;;;;;;3.43;0.30;;;16.80;56.00;;;;;;4845124;29;20299;-73
2022/05/25 13:22:18;;;;;;;8.70;0.70;;;17.00;56.40;;;;;;4802450;29;20296;-73
2022/05/25 13:25:02;;;;;;;3.00;0.50;;;16.90;56.70;;;;;;4854993;29;20343;-73
2022/05/25 13:27:47;;;;;;;3.83;1.03;;;17.10;56.60;;;;;;4855736;29;20320;-73
2022/05/25 13:30:23;;;;;;;13.57;4.00;;;17.10;56.20;;;;;;4840035;29;20742;-73
2022/05/25 13:32:54;;;;;;;31.03;7.00;;;17.10;56.70;;;;;;4858893;29;20306;-73
2022/05/25 13:35:20;;;;;;;3.27;0.50;;;17.10;55.10;;;;;;4826173;29;20878;-73
2022/05/25 13:37:52;;;;;;;2.70;1.17;;;17.00;56.10;;;;;;4852876;29;20428;-73
2022/05/25 13:40:21;;;;;;;6.63;0.83;;;17.10;55.70;;;;;;4827295;29;20046;-72